Flight Track Log - Related Links

Times and Time Zones

All times are in EDT time to prevent confusion due to time zone crossing. See the ASQ5740 flight status page for this flight to view local times or setup timezone preferences in your user account.

Time Position Orientation Groundspeed Altitude Reporting Facility
EDT Latitude Longitude Course Direction KTS MPH feet Rate Location/Type
Sun 03:23:00 PM 35.1379 -81.9538 North  Level Estimated
Sun 03:23:57 PM 35.0597 -82.0622 49° Northeast 259 298 7,300  Level Atlanta Center
Sun 03:24:00 PM 35.2185 -81.8651 North  Level Estimated
Sun 03:24:57 PM 35.1128 -81.9822 51° Northeast 296 341 9,600  Level Atlanta Center
Sun 03:25:00 PM 35.2991 -81.7762 North  Level Estimated
Sun 03:25:57 PM 35.1850 -81.9397 26° Northeast 287 330 11,300  Level Atlanta Center
Sun 03:26:00 PM 35.3796 -81.6871 80° East  Level Estimated
Sun 03:26:57 PM 35.2683 -81.9400 360° North 304 350 12,100  Level Atlanta Center
Sun 03:27:00 PM 35.4600 -81.5979 71° East  Level Estimated
Sun 03:27:57 PM 35.3400 -81.8542 44° Northeast 324 373 13,100  Level Atlanta Center
Sun 03:28:57 PM 35.3836 -81.7358 66° East 349 402 14,400 1,400 Climbing Atlanta Center
Sun 03:29:57 PM 35.4294 -81.6175 65° Northeast 369 425 15,900 1,350 Climbing Atlanta Center
Sun 03:30:57 PM 35.4750 -81.4986 65° Northeast 374 430 17,100 1,100 Climbing Atlanta Center
Sun 03:31:57 PM 35.5206 -81.3800 65° Northeast 379 436 18,100 1,150 Climbing Atlanta Center
Sun 03:32:57 PM 35.5717 -81.2431 65° Northeast 379 436 19,400 1,150 Climbing Atlanta Center
Sun 03:33:57 PM 35.6150 -81.1292 65° Northeast 396 456 20,400 950 Climbing Atlanta Center
Sun 03:34:57 PM 35.6619 -81.0072 65° Northeast 396 456 21,300 1,000 Climbing Atlanta Center
Sun 03:35:57 PM 35.7069 -80.8856 65° Northeast 391 450 22,400 1,150 Climbing Atlanta Center
Sun 03:36:57 PM 35.7539 -80.7608 65° Northeast 391 450 23,600 1,200 Climbing Atlanta Center
Sun 03:37:57 PM 35.7986 -80.6414 65° Northeast 386 444 24,800 950 Climbing Atlanta Center
Sun 03:38:57 PM 35.8411 -80.5242 66° East 386 444 25,500 671 Climbing Atlanta Center
Sun 03:40:47 PM 35.9325 -80.2839 65° Northeast 405 466 26,700 526 Climbing Washington Center
Sun 03:41:48 PM 35.9792 -80.1558 66° East 405 466 27,000 151 Climbing Washington Center
Sun 03:42:46 PM 36.0300 -80.0278 64° Northeast 405 466 27,000  Level Washington Center
Sun 03:43:47 PM 36.0864 -79.9128 59° Northeast 411 473 27,000  Level Washington Center
Sun 03:44:48 PM 36.1556 -79.7878 56° Northeast 428 493 27,000  Level Washington Center
Sun 03:45:48 PM 36.2378 -79.6456 54° Northeast 456 525 27,000 -203 Level Washington Center
Sun 03:46:46 PM 36.3000 -79.5275 57° Northeast 456 525 26,600 -504 Descending Washington Center
Sun 03:47:47 PM 36.3772 -79.3972 54° Northeast 461 531 26,000 -595 Descending Washington Center
Sun 03:48:47 PM 36.4506 -79.2589 57° Northeast 470 541 25,400 -496 Descending Washington Center
Sun 03:49:48 PM 36.5364 -79.1078 55° Northeast 476 548 25,000 -197 Descending Washington Center
Sun 03:50:49 PM 36.6067 -78.9892 54° Northeast 476 548 25,000  Level Washington Center
Sun 03:51:46 PM 36.6858 -78.8347 57° Northeast 482 555 25,000  Level Washington Center
Sun 03:52:47 PM 36.7606 -78.7006 55° Northeast 482 555 25,000 -99 Level Washington Center
Sun 03:53:47 PM 36.8386 -78.5764 52° Northeast 471 542 24,800 -397 Descending Washington Center
Sun 03:54:48 PM 36.9494 -78.4872 33° Northeast 456 525 24,200 -595 Descending Washington Center
Sun 03:55:48 PM 37.0494 -78.4050 33° Northeast 469 540 23,600 -559 Descending Washington Center
Sun 03:56:46 PM 37.1619 -78.3153 32° Northeast 474 545 23,100 -555 Descending Washington Center
Sun 03:57:47 PM 37.2747 -78.2228 33° Northeast 474 545 22,500 -541 Descending Washington Center
Sun 03:58:48 PM 37.3831 -78.1272 35° Northeast 479 551 22,000 -252 Descending Washington Center
Sun 03:59:46 PM 37.4914 -78.0364 34° Northeast 469 540 22,000 -661 Level Washington Center
Sun 04:00:46 PM 37.6017 -77.9431 34° Northeast 469 540 20,700 -1,650 Descending Washington Center
Sun 04:01:46 PM 37.7078 -77.8519 34° Northeast 469 540 18,700 -1,884 Descending Washington Center
Sun 04:02:47 PM 37.8094 -77.7656 34° Northeast 462 532 16,900 -1,869 Descending Washington Center
Sun 04:03:48 PM 37.9047 -77.6842 34° Northeast 434 499 14,900 -1,967 Descending Washington Center
Sun 04:04:49 PM 37.9978 -77.6022 35° Northeast 418 481 12,900 -2,067 Descending Washington Center
Sun 04:05:47 PM 38.0908 -77.5283 32° Northeast 400 460 10,800 -1,475 Descending Washington Center
Sun 04:06:47 PM 38.1756 -77.4564 34° Northeast 389 448 10,000 -443 Descending Washington Center
Sun 04:07:49 PM 38.2572 -77.4322 13° North 327 376 9,900 -756 Descending Washington Center
Sun 04:08:46 PM 38.3386 -77.4156 North 306 352 8,500 -1,424 Descending Washington Center
Sun 04:09:47 PM 38.4183 -77.3989 North 294 338 7,100 -1,377 Descending Washington Center
Sun 04:10:48 PM 38.4936 -77.3850 North 294 338 5,700 -1,016 Descending Washington Center
Sun 04:11:51 PM 38.5689 -77.3708 North 283 326 5,000 -712 Descending Washington Center
Sun 04:12:46 PM 38.6461 -77.3647 North 278 320 4,300 -438 Descending Washington Center
Sun 04:14:08 PM 38.7667 -77.3500 North 267 307 4,000 -127 Descending Potomac TRACON
Sun 04:15:08 PM 38.8333 -77.3500 360° North 252 290 4,000  Level Potomac TRACON
Sun 04:16:03 PM 38.8833 -77.3500 360° North 247 284 4,000 -52 Level Potomac TRACON
Sun 04:17:03 PM 38.9667 -77.3500 360° North 244 281 3,900 -500 Descending Potomac TRACON
Sun 04:18:03 PM 39.0333 -77.3500 360° North 229 264 3,000 -470 Descending Potomac TRACON
Sun 04:18:58 PM 39.0833 -77.3500 360° North 197 227 3,000  Level Potomac TRACON
Sun 04:19:58 PM 39.1333 -77.3500 360° North 203 234 3,000  Level Potomac TRACON
Sun 04:20:59 PM 39.1000 -77.4000 229° Southwest 183 211 3,000 -397 Level Potomac TRACON
Sun 04:21:59 PM 39.0667 -77.4333 218° Southwest 152 175 2,200 -650 Descending Potomac TRACON
Sun 04:22:59 PM 39.0333 -77.4333 180° South 140 161 1,700 -550 Descending Potomac TRACON
Sun 04:23:59 PM 38.9833 -77.4333 180° South 140 161 1,100 -600 Descending Potomac TRACON

Login

Don't have an account? Register now (free) for customized features, flight alerts, and more!